Ted Stevens Anchorage International Airport Anchorage US
ICAO: PANC
IATA: ANC
Category: Large
Scheduled Services:

Elevation: 152 ft
TransAlt. 18000 ft.

Airport Communications:
APP/DEP:119.1
APP/DEP:123.8
ATIS:118.4
TWEB:114.3
CLNC DEL:119.4
KENAI RDO:122.2
GND:121.9
SAN FRANCISCO ARINC:1133
CAMPER:140.15
KENAI RDO:122.55
TWR:118.3
UNICOM:122.95

PANC Zoom In..

Runways:

(A) RW 07L length 10600 ft width 150 ft
ILS 109.90 / hdg 71

(B) RW 07R length 12400 ft width 200 ft
ILS 111.30 / hdg 71

(C) RW 15 length 11584 ft width 150 ft
ILS 111.75 / hdg 146

(D) RW 25L length 12400 ft width 200 ft
---- / hdg 251

(E) RW 25R length 10600 ft width 150 ft
---- / hdg 251

(F) RW 33 length 11584 ft width 150 ft
---- / hdg 326

Location; PANC
Day. 15 / Time. 22.53 Zulu
* Altimeter: 29.80
* Temperature: 18° c. 64.4°f.
* Wind from: 270° Speed 07 kn.
Dewpoint: 10° c.
Visibility: 10 Statute Miles.
Clouds: Few 4500 ft.
Clouds: Scattered 6500 ft.
Clouds: Broken 1000 ft.
Clouds: Broken 25000 ft.
Conditions: Light Rain.Conditions: Cumulonimbus.

PANC 152253Z 27007KT 10SM -RA FEW045 SCT065 BKN100 BKN250 18/10 A2980 RMK AO2 RAB50 SLP091 CB N DSIPT P0000 T01780100


Wind From 270°
Speed 07 kn.

 
 
jpsmedia.com for Web Design worldairports.se 2018   terms of use